sensor_id;sensor_type;location;lat;lon;timestamp;pressure;altitude;pressure_sealevel;temperature;humidity
50977;BME280;36992;48.200;12.418;2022-09-12T00:01:46;96944.97;;;18.08;56.32
50977;BME280;36992;48.200;12.418;2022-09-12T00:04:12;96950.41;;;18.08;55.93
50977;BME280;36992;48.200;12.418;2022-09-12T00:06:41;96950.09;;;18.09;56.32
50977;BME280;36992;48.200;12.418;2022-09-12T00:09:11;96948.50;;;18.08;55.98
50977;BME280;36992;48.200;12.418;2022-09-12T00:11:39;96950.75;;;18.06;55.98
50977;BME280;36992;48.200;12.418;2022-09-12T00:14:07;96945.59;;;18.04;55.83
50977;BME280;36992;48.200;12.418;2022-09-12T00:16:35;96948.31;;;18.04;56.13
50977;BME280;36992;48.200;12.418;2022-09-12T00:19:03;96940.50;;;18.03;55.80
50977;BME280;36992;48.200;12.418;2022-09-12T00:21:32;96942.88;;;18.04;56.18
50977;BME280;36992;48.200;12.418;2022-09-12T00:24:00;96938.91;;;18.02;55.54
50977;BME280;36992;48.200;12.418;2022-09-12T00:26:27;96930.25;;;18.00;55.81
50977;BME280;36992;48.200;12.418;2022-09-12T00:28:53;96928.66;;;17.99;55.50
50977;BME280;36992;48.200;12.418;2022-09-12T00:31:21;96927.84;;;17.98;55.76
50977;BME280;36992;48.200;12.418;2022-09-12T00:33:49;96921.97;;;17.96;55.79
50977;BME280;36992;48.200;12.418;2022-09-12T00:36:18;96924.34;;;17.98;55.60
50977;BME280;36992;48.200;12.418;2022-09-12T00:38:46;96921.50;;;17.94;55.87
50977;BME280;36992;48.200;12.418;2022-09-12T00:41:17;96917.66;;;17.95;55.60
50977;BME280;36992;48.200;12.418;2022-09-12T00:43:45;96921.38;;;17.90;55.80
50977;BME280;36992;48.200;12.418;2022-09-12T00:46:25;96924.56;;;17.92;55.59
50977;BME280;36992;48.200;12.418;2022-09-12T00:48:56;96916.59;;;17.87;55.74
50977;BME280;36992;48.200;12.418;2022-09-12T00:51:24;96923.38;;;17.81;55.73
50977;BME280;36992;48.200;12.418;2022-09-12T00:53:52;96924.06;;;17.78;55.92
50977;BME280;36992;48.200;12.418;2022-09-12T00:56:22;96916.53;;;17.75;56.12
50977;BME280;36992;48.200;12.418;2022-09-12T00:58:53;96921.41;;;17.69;55.67
50977;BME280;36992;48.200;12.418;2022-09-12T01:01:20;96919.53;;;17.61;55.89
50977;BME280;36992;48.200;12.418;2022-09-12T01:03:46;96915.09;;;17.56;56.29
50977;BME280;36992;48.200;12.418;2022-09-12T01:06:17;96911.59;;;17.56;56.38
50977;BME280;36992;48.200;12.418;2022-09-12T01:08:46;96917.69;;;17.52;56.76
50977;BME280;36992;48.200;12.418;2022-09-12T01:11:14;96910.97;;;17.50;56.65
50977;BME280;36992;48.200;12.418;2022-09-12T01:13:44;96907.13;;;17.51;56.63
50977;BME280;36992;48.200;12.418;2022-09-12T01:16:11;96903.50;;;17.47;56.17
50977;BME280;36992;48.200;12.418;2022-09-12T01:18:46;96897.38;;;17.50;56.19
50977;BME280;36992;48.200;12.418;2022-09-12T01:21:19;96903.94;;;17.49;56.29
50977;BME280;36992;48.200;12.418;2022-09-12T01:24:17;96896.72;;;17.53;56.39
50977;BME280;36992;48.200;12.418;2022-09-12T01:30:05;96888.06;;;17.51;56.33
50977;BME280;36992;48.200;12.418;2022-09-12T01:32:52;96883.41;;;17.51;56.14
50977;BME280;36992;48.200;12.418;2022-09-12T01:35:24;96881.69;;;17.47;56.14
50977;BME280;36992;48.200;12.418;2022-09-12T01:38:07;96891.47;;;17.48;56.10
50977;BME280;36992;48.200;12.418;2022-09-12T01:40:41;96889.06;;;17.46;56.21
50977;BME280;36992;48.200;12.418;2022-09-12T01:43:16;96886.34;;;17.46;56.38
50977;BME280;36992;48.200;12.418;2022-09-12T01:45:50;96887.03;;;17.43;56.06
50977;BME280;36992;48.200;12.418;2022-09-12T01:48:20;96888.47;;;17.41;56.28
50977;BME280;36992;48.200;12.418;2022-09-12T01:50:51;96880.63;;;17.39;56.06
50977;BME280;36992;48.200;12.418;2022-09-12T01:53:22;96879.81;;;17.38;56.08
50977;BME280;36992;48.200;12.418;2022-09-12T01:55:55;96871.66;;;17.38;56.24
50977;BME280;36992;48.200;12.418;2022-09-12T01:58:26;96873.94;;;17.36;56.15
50977;BME280;36992;48.200;12.418;2022-09-12T02:00:57;96875.53;;;17.37;56.21
50977;BME280;36992;48.200;12.418;2022-09-12T02:03:30;96869.63;;;17.35;56.32
50977;BME280;36992;48.200;12.418;2022-09-12T02:06:00;96869.16;;;17.33;56.50
50977;BME280;36992;48.200;12.418;2022-09-12T02:08:32;96865.63;;;17.33;56.16
50977;BME280;36992;48.200;12.418;2022-09-12T02:11:05;96870.75;;;17.34;56.34
50977;BME280;36992;48.200;12.418;2022-09-12T02:13:35;96866.44;;;17.33;55.95
50977;BME280;36992;48.200;12.418;2022-09-12T02:16:07;96866.44;;;17.33;56.21
50977;BME280;36992;48.200;12.418;2022-09-12T02:18:38;96867.22;;;17.34;55.92
50977;BME280;36992;48.200;12.418;2022-09-12T02:21:08;96857.34;;;17.29;56.23
50977;BME280;36992;48.200;12.418;2022-09-12T02:23:38;96865.19;;;17.31;55.80
50977;BME280;36992;48.200;12.418;2022-09-12T02:26:11;96858.94;;;17.30;56.11
50977;BME280;36992;48.200;12.418;2022-09-12T02:28:40;96862.31;;;17.27;55.48
50977;BME280;36992;48.200;12.418;2022-09-12T02:31:12;96868.88;;;17.26;55.96
50977;BME280;36992;48.200;12.418;2022-09-12T02:33:47;96860.56;;;17.22;56.26
50977;BME280;36992;48.200;12.418;2022-09-12T02:36:24;96858.84;;;17.18;56.05
50977;BME280;36992;48.200;12.418;2022-09-12T02:38:54;96849.63;;;17.10;56.31
50977;BME280;36992;48.200;12.418;2022-09-12T02:41:21;96851.06;;;17.07;55.63
50977;BME280;36992;48.200;12.418;2022-09-12T02:43:49;96845.19;;;17.05;56.37
50977;BME280;36992;48.200;12.418;2022-09-12T02:46:21;96843.59;;;17.04;56.30
50977;BME280;36992;48.200;12.418;2022-09-12T02:48:49;96843.44;;;17.01;55.96
50977;BME280;36992;48.200;12.418;2022-09-12T02:51:16;96841.72;;;16.96;55.71
50977;BME280;36992;48.200;12.418;2022-09-12T02:53:43;96837.72;;;16.93;55.62
50977;BME280;36992;48.200;12.418;2022-09-12T02:56:13;96841.22;;;16.94;55.53
50977;BME280;36992;48.200;12.418;2022-09-12T02:58:43;96839.81;;;16.88;55.85
50977;BME280;36992;48.200;12.418;2022-09-12T03:01:14;96839.81;;;16.88;56.07
50977;BME280;36992;48.200;12.418;2022-09-12T03:03:58;96830.53;;;16.89;56.00
50977;BME280;36992;48.200;12.418;2022-09-12T03:06:33;96830.41;;;16.85;56.32
50977;BME280;36992;48.200;12.418;2022-09-12T03:09:10;96840.50;;;16.84;56.12
50977;BME280;36992;48.200;12.418;2022-09-12T03:11:58;96833.47;;;16.83;55.92
50977;BME280;36992;48.200;12.418;2022-09-12T03:14:38;96833.34;;;16.80;56.00
50977;BME280;36992;48.200;12.418;2022-09-12T03:17:13;96845.66;;;16.77;56.04
50977;BME280;36992;48.200;12.418;2022-09-12T03:19:52;96842.47;;;16.75;55.98
50977;BME280;36992;48.200;12.418;2022-09-12T03:22:24;96848.56;;;16.72;55.64
50977;BME280;36992;48.200;12.418;2022-09-12T03:25:00;96839.16;;;16.69;55.84
50977;BME280;36992;48.200;12.418;2022-09-12T03:27:32;96835.16;;;16.67;56.20
50977;BME280;36992;48.200;12.418;2022-09-12T03:30:01;96843.50;;;16.62;56.27
50977;BME280;36992;48.200;12.418;2022-09-12T03:32:45;96840.91;;;16.65;56.25
50977;BME280;36992;48.200;12.418;2022-09-12T03:35:15;96836.94;;;16.63;56.24
50977;BME280;36992;48.200;12.418;2022-09-12T03:37:42;96834.88;;;16.59;56.49
50977;BME280;36992;48.200;12.418;2022-09-12T03:40:11;96837.75;;;16.63;56.24
50977;BME280;36992;48.200;12.418;2022-09-12T03:42:37;96838.06;;;16.62;56.22
50977;BME280;36992;48.200;12.418;2022-09-12T03:45:05;96839.66;;;16.63;56.40
50977;BME280;36992;48.200;12.418;2022-09-12T03:47:32;96839.66;;;16.63;55.93
50977;BME280;36992;48.200;12.418;2022-09-12T03:49:59;96840.47;;;16.63;56.15
50977;BME280;36992;48.200;12.418;2022-09-12T03:52:27;96835.16;;;16.67;55.89
50977;BME280;36992;48.200;12.418;2022-09-12T03:54:53;96842.88;;;16.65;56.23
50977;BME280;36992;48.200;12.418;2022-09-12T03:57:20;96825.75;;;16.64;56.40
50977;BME280;36992;48.200;12.418;2022-09-12T03:59:47;96838.19;;;16.65;56.00
50977;BME280;36992;48.200;12.418;2022-09-12T04:02:14;96840.13;;;16.65;55.74
50977;BME280;36992;48.200;12.418;2022-09-12T04:04:40;96837.44;;;16.65;56.03
50977;BME280;36992;48.200;12.418;2022-09-12T04:07:08;96831.97;;;16.65;55.78
50977;BME280;36992;48.200;12.418;2022-09-12T04:09:36;96830.84;;;16.66;55.96
50977;BME280;36992;48.200;12.418;2022-09-12T04:12:03;96840.47;;;16.63;55.87
50977;BME280;36992;48.200;12.418;2022-09-12T04:14:30;96838.88;;;16.62;55.28
50977;BME280;36992;48.200;12.418;2022-09-12T04:16:56;96839.66;;;16.63;55.88
50977;BME280;36992;48.200;12.418;2022-09-12T04:19:24;96851.66;;;16.62;55.67
50977;BME280;36992;48.200;12.418;2022-09-12T04:21:50;96850.41;;;16.59;56.12
50977;BME280;36992;48.200;12.418;2022-09-12T04:24:17;96844.19;;;16.58;55.60
50977;BME280;36992;48.200;12.418;2022-09-12T04:26:45;96846.91;;;16.58;55.59
50977;BME280;36992;48.200;12.418;2022-09-12T04:29:12;96840.19;;;16.56;56.17
50977;BME280;36992;48.200;12.418;2022-09-12T04:31:39;96846.41;;;16.56;55.84
50977;BME280;36992;48.200;12.418;2022-09-12T04:34:06;96845.63;;;16.56;55.91
50977;BME280;36992;48.200;12.418;2022-09-12T04:36:33;96851.84;;;16.56;55.56
50977;BME280;36992;48.200;12.418;2022-09-12T04:39:00;96850.25;;;16.55;55.63
50977;BME280;36992;48.200;12.418;2022-09-12T04:41:29;96849.13;;;16.56;55.13
50977;BME280;36992;48.200;12.418;2022-09-12T04:43:59;96846.41;;;16.56;55.28
50977;BME280;36992;48.200;12.418;2022-09-12T04:46:28;96847.06;;;16.53;55.25
50977;BME280;36992;48.200;12.418;2022-09-12T04:48:55;96853.66;;;16.52;55.41
50977;BME280;36992;48.200;12.418;2022-09-12T04:51:24;96852.50;;;16.53;55.41
50977;BME280;36992;48.200;12.418;2022-09-12T04:53:53;96841.16;;;16.51;55.32
50977;BME280;36992;48.200;12.418;2022-09-12T04:56:20;96850.44;;;16.50;55.07
50977;BME280;36992;48.200;12.418;2022-09-12T04:58:48;96847.72;;;16.50;55.01
50977;BME280;36992;48.200;12.418;2022-09-12T05:01:17;96850.94;;;16.52;55.64
50977;BME280;36992;48.200;12.418;2022-09-12T05:03:45;96858.59;;;16.50;55.28
50977;BME280;36992;48.200;12.418;2022-09-12T05:06:15;96847.72;;;16.50;55.53
50977;BME280;36992;48.200;12.418;2022-09-12T05:08:42;96853.97;;;16.51;55.63
50977;BME280;36992;48.200;12.418;2022-09-12T05:11:11;96850.13;;;16.52;55.74
50977;BME280;36992;48.200;12.418;2022-09-12T05:13:41;96856.00;;;16.54;55.73
50977;BME280;36992;48.200;12.418;2022-09-12T05:16:10;96853.97;;;16.51;55.23
50977;BME280;36992;48.200;12.418;2022-09-12T05:18:38;96854.75;;;16.51;55.00
50977;BME280;36992;48.200;12.418;2022-09-12T05:21:07;96854.75;;;16.51;55.13
50977;BME280;36992;48.200;12.418;2022-09-12T05:23:35;96853.16;;;16.50;55.09
50977;BME280;36992;48.200;12.418;2022-09-12T05:26:03;96854.75;;;16.51;54.95
50977;BME280;36992;48.200;12.418;2022-09-12T05:28:33;96853.97;;;16.51;55.49
50977;BME280;36992;48.200;12.418;2022-09-12T05:31:00;96859.72;;;16.49;55.12
50977;BME280;36992;48.200;12.418;2022-09-12T05:33:27;96861.66;;;16.49;54.97
50977;BME280;36992;48.200;12.418;2022-09-12T05:35:56;96860.53;;;16.50;55.26
50977;BME280;36992;48.200;12.418;2022-09-12T05:38:22;96857.66;;;16.46;55.49
50977;BME280;36992;48.200;12.418;2022-09-12T05:40:49;96864.69;;;16.47;55.58
50977;BME280;36992;48.200;12.418;2022-09-12T05:43:16;96861.50;;;16.45;55.73
50977;BME280;36992;48.200;12.418;2022-09-12T05:45:44;96861.50;;;16.45;55.51
50977;BME280;36992;48.200;12.418;2022-09-12T05:48:11;96867.75;;;16.45;55.83
50977;BME280;36992;48.200;12.418;2022-09-12T05:50:37;96864.22;;;16.45;55.38
50977;BME280;36992;48.200;12.418;2022-09-12T05:53:05;96871.72;;;16.48;55.76
50977;BME280;36992;48.200;12.418;2022-09-12T05:55:32;96866.94;;;16.45;55.32
50977;BME280;36992;48.200;12.418;2022-09-12T05:57:59;96873.19;;;16.45;55.91
50977;BME280;36992;48.200;12.418;2022-09-12T06:00:26;96874.00;;;16.46;55.92
50977;BME280;36992;48.200;12.418;2022-09-12T06:02:52;96883.72;;;16.47;55.79
50977;BME280;36992;48.200;12.418;2022-09-12T06:05:19;96882.16;;;16.46;55.37
50977;BME280;36992;48.200;12.418;2022-09-12T06:07:46;96881.00;;;16.47;55.81
50977;BME280;36992;48.200;12.418;2022-09-12T06:10:14;96887.72;;;16.50;55.66
50977;BME280;36992;48.200;12.418;2022-09-12T06:12:42;96882.59;;;16.48;55.37
50977;BME280;36992;48.200;12.418;2022-09-12T06:15:09;96880.34;;;16.50;55.44
50977;BME280;36992;48.200;12.418;2022-09-12T06:17:35;96882.28;;;16.50;55.63
50977;BME280;36992;48.200;12.418;2022-09-12T06:20:02;96881.47;;;16.49;55.79
50977;BME280;36992;48.200;12.418;2022-09-12T06:22:29;96880.34;;;16.50;55.84
50977;BME280;36992;48.200;12.418;2022-09-12T06:24:56;96882.59;;;16.48;56.02
50977;BME280;36992;48.200;12.418;2022-09-12T06:27:23;96888.03;;;16.48;55.98
50977;BME280;36992;48.200;12.418;2022-09-12T06:29:50;96883.25;;;16.45;56.17
50977;BME280;36992;48.200;12.418;2022-09-12T06:32:17;96889.34;;;16.42;56.49
50977;BME280;36992;48.200;12.418;2022-09-12T06:34:43;96876.88;;;16.41;56.39
50977;BME280;36992;48.200;12.418;2022-09-12T06:37:12;96887.75;;;16.41;56.67
50977;BME280;36992;48.200;12.418;2022-09-12T06:39:39;96883.91;;;16.42;56.92
50977;BME280;36992;48.200;12.418;2022-09-12T06:42:06;96887.09;;;16.44;56.72
50977;BME280;36992;48.200;12.418;2022-09-12T06:44:34;96877.16;;;16.48;56.72
50977;BME280;36992;48.200;12.418;2022-09-12T06:47:00;96877.16;;;16.48;56.77
50977;BME280;36992;48.200;12.418;2022-09-12T06:49:27;96881.94;;;16.51;56.92
50977;BME280;36992;48.200;12.418;2022-09-12T06:51:55;96877.75;;;16.54;56.59
50977;BME280;36992;48.200;12.418;2022-09-12T06:54:21;96874.72;;;16.55;57.17
50977;BME280;36992;48.200;12.418;2022-09-12T06:56:50;96877.28;;;16.61;57.46
50977;BME280;36992;48.200;12.418;2022-09-12T06:59:17;96873.88;;;16.64;56.96
50977;BME280;36992;48.200;12.418;2022-09-12T07:01:45;96881.06;;;16.68;57.32
50977;BME280;36992;48.200;12.418;2022-09-12T07:04:12;96880.72;;;16.70;57.18
50977;BME280;36992;48.200;12.418;2022-09-12T07:06:40;96878.94;;;16.74;56.81
50977;BME280;36992;48.200;12.418;2022-09-12T07:09:10;96878.31;;;16.77;56.81
50977;BME280;36992;48.200;12.418;2022-09-12T07:11:38;96879.91;;;16.78;57.40
50977;BME280;36992;48.200;12.418;2022-09-12T07:14:06;96881.94;;;16.81;56.70
50977;BME280;36992;48.200;12.418;2022-09-12T07:16:34;96882.44;;;16.83;56.54
50977;BME280;36992;48.200;12.418;2022-09-12T07:19:04;96888.16;;;16.91;56.99
50977;BME280;36992;48.200;12.418;2022-09-12T07:21:31;96884.63;;;16.90;56.95
50977;BME280;36992;48.200;12.418;2022-09-12T07:24:00;96886.34;;;16.95;56.72
50977;BME280;36992;48.200;12.418;2022-09-12T07:26:28;96880.25;;;16.98;56.89
50977;BME280;36992;48.200;12.418;2022-09-12T07:28:55;96878.50;;;17.02;56.56
50977;BME280;36992;48.200;12.418;2022-09-12T07:31:25;96875.56;;;17.07;56.52
50977;BME280;36992;48.200;12.418;2022-09-12T07:33:52;96876.50;;;17.11;56.32
50977;BME280;36992;48.200;12.418;2022-09-12T07:36:21;96878.38;;;17.20;56.03
50977;BME280;36992;48.200;12.418;2022-09-12T07:38:53;96882.84;;;17.24;56.07
50977;BME280;36992;48.200;12.418;2022-09-12T07:41:21;96872.72;;;17.25;55.68
50977;BME280;36992;48.200;12.418;2022-09-12T07:43:50;96874.94;;;17.32;55.88
50977;BME280;36992;48.200;12.418;2022-09-12T07:46:17;96880.06;;;17.33;55.27
50977;BME280;36992;48.200;12.418;2022-09-12T07:48:48;96880.31;;;17.41;55.27
50977;BME280;36992;48.200;12.418;2022-09-12T07:51:16;96881.44;;;17.39;55.86
50977;BME280;36992;48.200;12.418;2022-09-12T07:53:45;96877.72;;;17.44;56.12
50977;BME280;36992;48.200;12.418;2022-09-12T07:56:12;96881.22;;;17.45;55.57
50977;BME280;36992;48.200;12.418;2022-09-12T07:58:40;96882.16;;;17.49;55.74
50977;BME280;36992;48.200;12.418;2022-09-12T08:01:08;96884.22;;;17.52;55.90
50977;BME280;36992;48.200;12.418;2022-09-12T08:03:36;96885.13;;;17.56;56.64
50977;BME280;36992;48.200;12.418;2022-09-12T08:06:04;96887.66;;;17.61;56.70
50977;BME280;36992;48.200;12.418;2022-09-12T08:08:30;96878.47;;;17.66;56.43
50977;BME280;36992;48.200;12.418;2022-09-12T08:10:59;96883.41;;;17.73;56.23
50977;BME280;36992;48.200;12.418;2022-09-12T08:13:26;96882.72;;;17.76;56.23
50977;BME280;36992;48.200;12.418;2022-09-12T08:15:56;96877.19;;;17.85;56.62
50977;BME280;36992;48.200;12.418;2022-09-12T08:18:24;96885.03;;;17.86;56.80
50977;BME280;36992;48.200;12.418;2022-09-12T08:20:55;96879.16;;;17.97;56.67
50977;BME280;36992;48.200;12.418;2022-09-12T08:23:22;96887.78;;;17.99;56.72
50977;BME280;36992;48.200;12.418;2022-09-12T08:25:48;96888.72;;;18.03;56.36
50977;BME280;36992;48.200;12.418;2022-09-12T08:28:16;96886.25;;;18.10;55.70
50977;BME280;36992;48.200;12.418;2022-09-12T08:30:43;96891.03;;;18.13;55.66
50977;BME280;36992;48.200;12.418;2022-09-12T08:33:09;96890.47;;;18.20;55.52
50977;BME280;36992;48.200;12.418;2022-09-12T08:35:36;96885.16;;;18.24;54.64
50977;BME280;36992;48.200;12.418;2022-09-12T08:38:02;96887.66;;;18.29;54.67
50977;BME280;36992;48.200;12.418;2022-09-12T08:40:29;96893.69;;;18.34;54.81
50977;BME280;36992;48.200;12.418;2022-09-12T08:43:02;96895.16;;;18.44;54.36
50977;BME280;36992;48.200;12.418;2022-09-12T08:45:42;96883.59;;;18.47;55.00
50977;BME280;36992;48.200;12.418;2022-09-12T08:48:14;96877.44;;;18.51;54.96
50977;BME280;36992;48.200;12.418;2022-09-12T08:50:40;96880.66;;;18.53;54.97
50977;BME280;36992;48.200;12.418;2022-09-12T08:53:12;96879.28;;;18.59;55.11
50977;BME280;36992;48.200;12.418;2022-09-12T08:55:42;96875.53;;;18.64;55.03
50977;BME280;36992;48.200;12.418;2022-09-12T08:58:13;96878.03;;;18.69;55.97
50977;BME280;36992;48.200;12.418;2022-09-12T09:00:47;96870.06;;;18.76;55.43
50977;BME280;36992;48.200;12.418;2022-09-12T09:03:28;96873.34;;;18.82;55.48
50977;BME280;36992;48.200;12.418;2022-09-12T09:06:07;96874.69;;;18.88;55.20
50977;BME280;36992;48.200;12.418;2022-09-12T09:08:46;96870.16;;;18.92;55.04
50977;BME280;36992;48.200;12.418;2022-09-12T09:11:30;96878.56;;;18.99;54.78
50977;BME280;36992;48.200;12.418;2022-09-12T09:14:11;96877.22;;;19.06;54.66
50977;BME280;36992;48.200;12.418;2022-09-12T09:17:00;96875.41;;;19.10;54.40
50977;BME280;36992;48.200;12.418;2022-09-12T09:19:30;96868.56;;;19.16;54.21
50977;BME280;36992;48.200;12.418;2022-09-12T09:22:02;96872.97;;;19.21;54.45
50977;BME280;36992;48.200;12.418;2022-09-12T09:24:32;96869.22;;;19.25;54.54
50977;BME280;36992;48.200;12.418;2022-09-12T09:27:05;96870.13;;;19.30;53.72
50977;BME280;36992;48.200;12.418;2022-09-12T09:29:39;96869.88;;;19.35;54.65
50977;BME280;36992;48.200;12.418;2022-09-12T09:32:14;96871.31;;;19.45;54.13
50977;BME280;36992;48.200;12.418;2022-09-12T09:34:42;96876.44;;;19.46;52.75
50977;BME280;36992;48.200;12.418;2022-09-12T09:37:15;96867.97;;;19.51;53.28
50977;BME280;36992;48.200;12.418;2022-09-12T09:39:51;96867.75;;;19.57;53.19
50977;BME280;36992;48.200;12.418;2022-09-12T09:42:26;96864.31;;;19.60;52.91
50977;BME280;36992;48.200;12.418;2022-09-12T09:44:56;96857.75;;;19.77;53.85
50977;BME280;36992;48.200;12.418;2022-09-12T09:47:25;96857.91;;;19.68;52.87
50977;BME280;36992;48.200;12.418;2022-09-12T09:49:52;96854.03;;;19.69;52.11
50977;BME280;36992;48.200;12.418;2022-09-12T09:52:24;96850.38;;;19.77;52.86
50977;BME280;36992;48.200;12.418;2022-09-12T09:54:54;96850.81;;;19.79;52.51
50977;BME280;36992;48.200;12.418;2022-09-12T09:57:39;96847.09;;;19.88;53.35
50977;BME280;36992;48.200;12.418;2022-09-12T10:00:24;96847.28;;;19.95;53.40
50977;BME280;36992;48.200;12.418;2022-09-12T10:03:05;96856.84;;;20.01;52.91
50977;BME280;36992;48.200;12.418;2022-09-12T10:05:34;96850.25;;;20.02;51.13
50977;BME280;36992;48.200;12.418;2022-09-12T10:08:09;96850.78;;;20.08;50.63
50977;BME280;36992;48.200;12.418;2022-09-12T10:10:36;96852.44;;;20.13;50.20
50977;BME280;36992;48.200;12.418;2022-09-12T10:13:20;96844.88;;;20.22;50.73
50977;BME280;36992;48.200;12.418;2022-09-12T10:15:54;96853.19;;;20.42;52.01
50977;BME280;36992;48.200;12.418;2022-09-12T10:18:37;96852.03;;;20.43;51.02
50977;BME280;36992;48.200;12.418;2022-09-12T10:21:15;96844.34;;;20.48;50.78
50977;BME280;36992;48.200;12.418;2022-09-12T10:23:44;96839.31;;;20.51;48.41
50977;BME280;36992;48.200;12.418;2022-09-12T10:26:13;96841.06;;;20.59;48.90
50977;BME280;36992;48.200;12.418;2022-09-12T10:28:42;96843.53;;;20.64;49.09
50977;BME280;36992;48.200;12.418;2022-09-12T10:31:15;96841.75;;;20.72;50.17
50977;BME280;36992;48.200;12.418;2022-09-12T10:33:45;96840.75;;;20.80;49.24
50977;BME280;36992;48.200;12.418;2022-09-12T10:36:17;96836.19;;;20.84;47.64
50977;BME280;36992;48.200;12.418;2022-09-12T10:38:48;96836.78;;;20.94;49.27
50977;BME280;36992;48.200;12.418;2022-09-12T10:41:15;96840.41;;;20.98;49.85
50977;BME280;36992;48.200;12.418;2022-09-12T10:43:42;96842.13;;;21.06;48.00
50977;BME280;36992;48.200;12.418;2022-09-12T10:46:21;96835.38;;;21.20;49.01
50977;BME280;36992;48.200;12.418;2022-09-12T10:48:50;96833.84;;;21.22;47.56
50977;BME280;36992;48.200;12.418;2022-09-12T10:51:26;96824.19;;;21.28;47.91
50977;BME280;36992;48.200;12.418;2022-09-12T10:53:54;96821.13;;;21.30;48.26
50977;BME280;36992;48.200;12.418;2022-09-12T10:56:23;96816.13;;;21.36;47.75
50977;BME280;36992;48.200;12.418;2022-09-12T10:59:06;96821.84;;;21.47;48.77
50977;BME280;36992;48.200;12.418;2022-09-12T11:01:39;96818.78;;;21.52;48.92
50977;BME280;36992;48.200;12.418;2022-09-12T11:04:21;96822.09;;;21.61;48.39
50977;BME280;36992;48.200;12.418;2022-09-12T11:07:00;96814.00;;;21.68;48.08
50977;BME280;36992;48.200;12.418;2022-09-12T11:09:37;96804.00;;;21.76;47.02
50977;BME280;36992;48.200;12.418;2022-09-12T11:12:11;96797.44;;;21.81;46.16
50977;BME280;36992;48.200;12.418;2022-09-12T11:14:55;96806.22;;;21.90;47.49
50977;BME280;36992;48.200;12.418;2022-09-12T11:17:31;96798.47;;;21.96;46.18
50977;BME280;36992;48.200;12.418;2022-09-12T11:20:44;96796.34;;;22.09;48.18
50977;BME280;36992;48.200;12.418;2022-09-12T11:23:34;96801.94;;;22.16;47.41
50977;BME280;36992;48.200;12.418;2022-09-12T11:26:15;96797.28;;;22.20;47.75
50977;BME280;36992;48.200;12.418;2022-09-12T11:28:51;96800.53;;;22.26;47.07
50977;BME280;36992;48.200;12.418;2022-09-12T11:31:32;96794.16;;;22.45;48.35
50977;BME280;36992;48.200;12.418;2022-09-12T11:34:07;96798.81;;;22.41;45.92
50977;BME280;36992;48.200;12.418;2022-09-12T11:36:43;96807.88;;;22.45;46.36
50977;BME280;36992;48.200;12.418;2022-09-12T11:39:14;96789.09;;;22.47;44.82
50977;BME280;36992;48.200;12.418;2022-09-12T11:41:43;96795.00;;;22.49;44.38
50977;BME280;36992;48.200;12.418;2022-09-12T11:44:16;96803.38;;;22.57;44.99
50977;BME280;36992;48.200;12.418;2022-09-12T11:46:45;96792.84;;;22.59;44.03
50977;BME280;36992;48.200;12.418;2022-09-12T11:49:26;96804.75;;;22.70;45.12
50977;BME280;36992;48.200;12.418;2022-09-12T11:51:59;96794.97;;;22.73;44.49
50977;BME280;36992;48.200;12.418;2022-09-12T11:54:32;96792.72;;;22.79;44.37
50977;BME280;36992;48.200;12.418;2022-09-12T11:57:07;96792.75;;;22.82;44.56
50977;BME280;36992;48.200;12.418;2022-09-12T11:59:43;96795.97;;;22.88;44.65
50977;BME280;36992;48.200;12.418;2022-09-12T12:02:14;96789.75;;;22.91;43.52
50977;BME280;36992;48.200;12.418;2022-09-12T12:04:55;96789.84;;;22.98;44.55
50977;BME280;36992;48.200;12.418;2022-09-12T12:07:28;96785.19;;;23.02;43.53
50977;BME280;36992;48.200;12.418;2022-09-12T12:09:57;96791.09;;;23.04;43.03
50977;BME280;36992;48.200;12.418;2022-09-12T12:12:26;96786.84;;;23.11;42.21
50977;BME280;36992;48.200;12.418;2022-09-12T12:14:55;96795.50;;;23.13;41.08
50977;BME280;36992;48.200;12.418;2022-09-12T12:17:24;96790.84;;;23.17;41.49
50977;BME280;36992;48.200;12.418;2022-09-12T12:19:56;96782.69;;;23.24;43.33
50977;BME280;36992;48.200;12.418;2022-09-12T12:22:25;96778.00;;;23.25;42.44
50977;BME280;36992;48.200;12.418;2022-09-12T12:25:03;96774.56;;;23.31;43.34
50977;BME280;36992;48.200;12.418;2022-09-12T12:27:49;96765.97;;;23.37;43.00
50977;BME280;36992;48.200;12.418;2022-09-12T12:33:54;96769.25;;;23.46;42.55
50977;BME280;36992;48.200;12.418;2022-09-12T12:36:34;96759.81;;;23.47;41.06
50977;BME280;36992;48.200;12.418;2022-09-12T12:45:58;96759.22;;;23.65;42.75
50977;BME280;36992;48.200;12.418;2022-09-12T12:48:29;96745.03;;;23.63;41.02
50977;BME280;36992;48.200;12.418;2022-09-12T12:54:47;96746.72;;;23.71;40.78
50977;BME280;36992;48.200;12.418;2022-09-12T12:57:27;96748.22;;;23.65;38.38
50977;BME280;36992;48.200;12.418;2022-09-12T12:59:57;96739.16;;;23.64;39.85
50977;BME280;36992;48.200;12.418;2022-09-12T13:02:29;96743.13;;;23.67;39.62
50977;BME280;36992;48.200;12.418;2022-09-12T13:04:59;96739.56;;;23.66;39.52
50977;BME280;36992;48.200;12.418;2022-09-12T13:07:30;96735.72;;;23.71;37.54
50977;BME280;36992;48.200;12.418;2022-09-12T13:09:59;96729.38;;;23.67;36.36
50977;BME280;36992;48.200;12.418;2022-09-12T13:12:30;96719.59;;;23.69;37.93
50977;BME280;36992;48.200;12.418;2022-09-12T13:15:00;96723.09;;;23.70;37.32
50977;BME280;36992;48.200;12.418;2022-09-12T13:17:32;96722.00;;;23.75;39.39
50977;BME280;36992;48.200;12.418;2022-09-12T13:20:04;96716.50;;;23.75;37.48
50977;BME280;36992;48.200;12.418;2022-09-12T13:22:40;96716.91;;;23.80;39.31
50977;BME280;36992;48.200;12.418;2022-09-12T13:25:18;96703.56;;;23.82;38.68
50977;BME280;36992;48.200;12.418;2022-09-12T13:28:02;96715.41;;;23.87;39.21